createdAt,value
2023-03-29T00:00:46.854Z,0.00
2023-03-29T00:01:46.823Z,0.00
2023-03-29T00:02:46.854Z,0.00
2023-03-29T00:03:46.849Z,0.00
2023-03-29T00:04:47.820Z,0.00
2023-03-29T00:05:46.794Z,0.00
2023-03-29T00:06:46.769Z,0.00
2023-03-29T00:07:46.780Z,0.00
2023-03-29T00:08:46.726Z,0.00
2023-03-29T00:09:46.737Z,0.00
2023-03-29T00:10:46.750Z,0.00
2023-03-29T00:11:46.724Z,0.00
2023-03-29T00:12:46.693Z,0.00
2023-03-29T00:13:46.710Z,0.00
2023-03-29T00:14:46.733Z,0.00
2023-03-29T00:15:46.686Z,0.00
2023-03-29T00:16:46.868Z,0.00
2023-03-29T00:17:46.705Z,0.00
2023-03-29T00:18:46.654Z,0.00
2023-03-29T00:19:46.652Z,0.00
2023-03-29T00:20:46.609Z,0.00
2023-03-29T00:21:46.602Z,0.00
2023-03-29T00:22:46.657Z,0.00
2023-03-29T00:23:46.566Z,0.00
2023-03-29T00:24:46.589Z,0.00
2023-03-29T00:25:46.575Z,0.00
2023-03-29T00:26:46.582Z,0.00
2023-03-29T00:27:46.546Z,0.00
2023-03-29T00:28:46.554Z,0.00
2023-03-29T00:29:46.602Z,0.00
2023-03-29T00:30:46.500Z,0.00
2023-03-29T00:31:46.546Z,0.00
2023-03-29T00:32:46.506Z,0.00
2023-03-29T00:33:46.485Z,0.00
2023-03-29T00:34:46.479Z,0.00
2023-03-29T00:35:46.515Z,0.00
2023-03-29T00:36:46.455Z,0.00
2023-03-29T00:37:46.439Z,0.00
2023-03-29T00:38:46.443Z,0.00
2023-03-29T00:39:46.405Z,0.00
2023-03-29T00:40:46.424Z,0.00
2023-03-29T00:41:46.408Z,0.00
2023-03-29T00:42:46.387Z,0.00
2023-03-29T00:43:46.367Z,0.00
2023-03-29T00:44:46.381Z,0.00
2023-03-29T00:45:46.353Z,0.00
2023-03-29T00:46:46.367Z,0.00
2023-03-29T00:47:46.407Z,0.00
2023-03-29T00:48:46.355Z,0.00
2023-03-29T00:49:46.318Z,0.00
2023-03-29T00:50:46.300Z,0.00
2023-03-29T00:51:46.311Z,0.00
2023-03-29T00:52:46.330Z,0.00
2023-03-29T00:53:46.266Z,0.00
2023-03-29T00:54:46.245Z,0.00
2023-03-29T00:55:46.268Z,0.00
2023-03-29T00:56:46.240Z,0.00
2023-03-29T00:57:46.228Z,0.00
2023-03-29T00:58:46.236Z,0.00
2023-03-29T00:59:46.220Z,0.00
2023-03-29T01:00:46.192Z,0.00
2023-03-29T01:01:46.235Z,0.00
2023-03-29T01:02:46.226Z,0.00
2023-03-29T01:03:46.388Z,0.00
2023-03-29T01:04:46.196Z,0.00
2023-03-29T01:05:46.161Z,0.00
2023-03-29T01:06:46.182Z,0.00
2023-03-29T01:07:46.145Z,0.00
2023-03-29T01:08:46.133Z,0.00
2023-03-29T01:09:46.128Z,0.00
2023-03-29T01:10:46.087Z,0.00
2023-03-29T01:11:46.109Z,0.00
2023-03-29T01:12:46.056Z,0.00
2023-03-29T01:13:46.065Z,0.00
2023-03-29T01:14:47.076Z,0.00
2023-03-29T01:15:46.055Z,0.00
2023-03-29T01:16:46.105Z,0.00
2023-03-29T01:17:46.051Z,0.00
2023-03-29T01:18:46.043Z,0.00
2023-03-29T01:19:46.010Z,0.00
2023-03-29T01:20:45.995Z,0.00
2023-03-29T01:21:45.992Z,0.00
2023-03-29T01:22:46.003Z,0.00
2023-03-29T01:23:45.991Z,0.00
2023-03-29T01:24:45.958Z,0.00
2023-03-29T01:25:45.952Z,0.00
2023-03-29T01:26:45.970Z,0.00
2023-03-29T01:27:45.919Z,0.00
2023-03-29T01:28:45.938Z,0.00
2023-03-29T01:29:45.906Z,0.00
2023-03-29T01:30:45.884Z,0.00
2023-03-29T01:31:46.001Z,0.00
2023-03-29T01:32:45.936Z,0.00
2023-03-29T01:33:45.885Z,0.00
2023-03-29T01:34:45.834Z,0.00
2023-03-29T01:35:45.895Z,0.00
2023-03-29T01:36:45.809Z,0.00
2023-03-29T01:37:45.818Z,0.00
2023-03-29T01:38:45.836Z,0.00
2023-03-29T01:39:45.811Z,0.00
2023-03-29T01:40:45.789Z,0.00
2023-03-29T01:41:45.771Z,0.00
2023-03-29T01:42:45.774Z,0.00
2023-03-29T01:43:46.766Z,0.00
2023-03-29T01:44:45.776Z,0.00
2023-03-29T01:45:45.754Z,0.00
2023-03-29T01:46:45.735Z,0.00
2023-03-29T01:47:45.746Z,0.00
2023-03-29T01:48:45.716Z,0.00
2023-03-29T01:49:45.692Z,0.00
2023-03-29T01:50:45.685Z,0.00
2023-03-29T01:51:45.676Z,0.00
2023-03-29T01:52:45.674Z,0.00
2023-03-29T01:53:45.649Z,0.00
2023-03-29T01:54:45.624Z,0.00
2023-03-29T01:55:45.653Z,0.00
2023-03-29T01:56:45.661Z,0.00
2023-03-29T01:57:45.607Z,0.00
2023-03-29T01:58:45.584Z,0.00
2023-03-29T01:59:45.601Z,0.00
2023-03-29T02:00:45.580Z,0.00
2023-03-29T02:01:45.603Z,0.00
2023-03-29T02:02:45.714Z,0.00
2023-03-29T02:03:45.642Z,0.00
2023-03-29T02:04:45.519Z,0.00
2023-03-29T02:05:45.518Z,0.00
2023-03-29T02:06:45.534Z,0.00
2023-03-29T02:07:45.498Z,0.00
2023-03-29T02:08:45.553Z,0.00
2023-03-29T02:09:45.489Z,0.00
2023-03-29T02:10:45.472Z,0.00
2023-03-29T02:11:45.460Z,0.00
2023-03-29T02:12:45.481Z,0.00
2023-03-29T02:13:45.450Z,0.00
2023-03-29T02:14:45.412Z,0.00
2023-03-29T02:15:45.483Z,0.00
2023-03-29T02:16:45.423Z,0.00
2023-03-29T02:17:45.429Z,0.00
2023-03-29T02:18:45.405Z,0.00
2023-03-29T02:19:45.387Z,0.00
2023-03-29T02:20:45.355Z,0.00
2023-03-29T02:21:45.356Z,0.00
2023-03-29T02:22:45.385Z,0.00
2023-03-29T02:23:45.371Z,0.00
2023-03-29T02:24:45.320Z,0.00
2023-03-29T02:25:45.321Z,0.00
2023-03-29T02:26:45.327Z,0.00
2023-03-29T02:27:45.301Z,0.00
2023-03-29T02:28:45.276Z,0.00
2023-03-29T02:29:45.281Z,0.00
2023-03-29T02:30:45.290Z,0.00
2023-03-29T02:31:45.383Z,0.00
2023-03-29T02:32:45.286Z,0.00
2023-03-29T02:33:45.281Z,0.00
2023-03-29T02:34:45.232Z,0.00
2023-03-29T02:35:45.230Z,0.00
2023-03-29T02:36:45.213Z,0.00
2023-03-29T02:37:45.220Z,0.00
2023-03-29T02:38:45.182Z,0.00
2023-03-29T02:39:45.184Z,0.00
2023-03-29T02:40:45.154Z,0.00
2023-03-29T02:41:45.157Z,0.00
2023-03-29T02:42:45.153Z,0.00
2023-03-29T02:43:45.138Z,0.00
2023-03-29T02:44:45.103Z,0.00
2023-03-29T02:45:45.101Z,0.00
2023-03-29T02:46:45.149Z,0.00
2023-03-29T02:47:45.150Z,0.00
2023-03-29T02:48:45.108Z,0.00
2023-03-29T02:49:45.091Z,0.00
2023-03-29T02:50:45.041Z,0.00
2023-03-29T02:51:45.058Z,0.00
2023-03-29T02:52:45.062Z,0.00
2023-03-29T02:53:45.038Z,0.00
2023-03-29T02:54:45.001Z,0.00
2023-03-29T02:55:45.007Z,0.00
2023-03-29T02:56:45.085Z,0.00
2023-03-29T02:57:44.994Z,0.00
2023-03-29T02:58:45.019Z,0.00
2023-03-29T02:59:44.986Z,0.00
2023-03-29T03:00:44.937Z,0.00
2023-03-29T03:01:45.080Z,0.00
2023-03-29T03:02:45.033Z,0.00
2023-03-29T03:03:45.044Z,0.00
2023-03-29T03:04:44.973Z,0.00
2023-03-29T03:05:44.908Z,0.00
2023-03-29T03:06:44.893Z,0.00
2023-03-29T03:07:44.890Z,0.00
2023-03-29T03:08:44.903Z,0.00
2023-03-29T03:09:45.888Z,0.00
2023-03-29T03:10:44.844Z,0.00
2023-03-29T03:11:44.862Z,0.00
2023-03-29T03:12:44.829Z,0.00
2023-03-29T03:13:44.824Z,0.00
2023-03-29T03:14:44.825Z,0.00
2023-03-29T03:15:44.809Z,0.00
2023-03-29T03:16:44.906Z,0.00
2023-03-29T03:18:16.780Z,0.00
2023-03-29T03:18:44.777Z,0.00
2023-03-29T03:19:44.799Z,0.00
2023-03-29T03:20:44.752Z,0.00
2023-03-29T03:21:44.785Z,0.00
2023-03-29T03:22:44.737Z,0.00
2023-03-29T03:23:44.747Z,0.00
2023-03-29T03:24:44.731Z,0.00
2023-03-29T03:25:44.714Z,0.00
2023-03-29T03:26:44.719Z,0.00
2023-03-29T03:27:44.688Z,0.00
2023-03-29T03:28:44.682Z,0.00
2023-03-29T03:29:44.648Z,0.00
2023-03-29T03:30:44.657Z,0.00
2023-03-29T03:31:44.794Z,0.00
2023-03-29T03:32:44.754Z,0.00
2023-03-29T03:33:44.651Z,0.00
2023-03-29T03:34:44.616Z,0.00
2023-03-29T03:35:44.618Z,0.00
2023-03-29T03:36:44.577Z,0.00
2023-03-29T03:37:44.572Z,0.00
2023-03-29T03:38:44.594Z,0.00
2023-03-29T03:39:44.545Z,0.00
2023-03-29T03:40:44.557Z,0.00
2023-03-29T03:41:44.530Z,0.00
2023-03-29T03:42:44.539Z,0.00
2023-03-29T03:43:44.506Z,0.00
2023-03-29T03:44:44.519Z,0.00
2023-03-29T03:45:44.536Z,0.00
2023-03-29T03:46:44.515Z,0.00
2023-03-29T03:47:44.524Z,0.00
2023-03-29T03:48:44.455Z,0.00
2023-03-29T03:49:44.449Z,0.00
2023-03-29T03:50:44.433Z,0.00
2023-03-29T03:51:44.424Z,0.00
2023-03-29T03:52:44.457Z,0.00
2023-03-29T03:53:44.429Z,0.00
2023-03-29T03:54:44.412Z,0.00
2023-03-29T03:55:44.379Z,0.00
2023-03-29T03:56:44.393Z,0.00
2023-03-29T03:57:44.363Z,0.00
2023-03-29T03:58:44.379Z,0.00
2023-03-29T03:59:44.335Z,0.00
2023-03-29T04:00:44.322Z,0.00
2023-03-29T04:01:44.356Z,0.00
2023-03-29T04:02:44.431Z,0.00
2023-03-29T04:03:44.338Z,0.00
2023-03-29T04:04:44.283Z,0.00
2023-03-29T04:05:44.300Z,0.00
2023-03-29T04:06:44.283Z,0.00
2023-03-29T04:07:44.289Z,0.00
2023-03-29T04:08:44.258Z,0.00
2023-03-29T04:09:44.230Z,0.00
2023-03-29T04:10:44.233Z,0.00
2023-03-29T04:11:44.300Z,0.00
2023-03-29T04:12:44.226Z,0.00
2023-03-29T04:13:44.188Z,0.00
2023-03-29T04:14:44.184Z,0.00
2023-03-29T04:15:44.205Z,0.00
2023-03-29T04:16:44.181Z,0.00
2023-03-29T04:17:44.218Z,0.00
2023-03-29T04:18:44.291Z,0.00
2023-03-29T04:19:44.158Z,0.00
2023-03-29T04:20:44.129Z,0.00
2023-03-29T04:21:44.134Z,0.00
2023-03-29T04:22:44.124Z,0.00
2023-03-29T04:23:44.116Z,0.00
2023-03-29T04:24:44.110Z,0.00
2023-03-29T04:25:44.074Z,0.00
2023-03-29T04:26:44.053Z,0.00
2023-03-29T04:27:44.054Z,0.00
2023-03-29T04:28:44.040Z,0.00
2023-03-29T04:29:44.034Z,0.00
2023-03-29T04:30:44.027Z,0.00
2023-03-29T04:31:44.053Z,0.00
2023-03-29T04:32:44.094Z,0.00
2023-03-29T04:33:44.010Z,0.00
2023-03-29T04:34:43.993Z,0.00
2023-03-29T04:35:44.066Z,0.00
2023-03-29T04:36:44.050Z,0.00
2023-03-29T04:37:43.998Z,0.00
2023-03-29T04:38:47.378Z,0.00
2023-03-29T04:39:44.974Z,0.00
2023-03-29T04:40:44.114Z,0.00
2023-03-29T04:41:43.902Z,0.00
2023-03-29T04:42:43.918Z,0.00
2023-03-29T04:43:43.901Z,0.00
2023-03-29T04:44:43.984Z,0.00
2023-03-29T04:45:43.882Z,0.00
2023-03-29T04:46:43.890Z,0.00
2023-03-29T04:47:43.906Z,0.00
2023-03-29T04:48:43.862Z,0.00
2023-03-29T04:49:43.859Z,0.00
2023-03-29T04:50:43.823Z,0.00
2023-03-29T04:51:43.830Z,0.00
2023-03-29T04:52:43.796Z,0.00
2023-03-29T04:53:43.800Z,0.00
2023-03-29T04:54:43.793Z,0.00
2023-03-29T04:55:43.768Z,0.00
2023-03-29T04:56:43.807Z,0.00
2023-03-29T04:57:43.758Z,0.00
2023-03-29T04:58:43.757Z,0.00
2023-03-29T04:59:43.711Z,0.00
2023-03-29T05:00:44.728Z,0.00
2023-03-29T05:01:43.787Z,0.00
2023-03-29T05:02:43.721Z,0.00
2023-03-29T05:03:43.718Z,0.00
2023-03-29T05:04:43.718Z,5.62
2023-03-29T05:05:43.675Z,5.62
2023-03-29T05:06:43.684Z,5.62
2023-03-29T05:07:43.637Z,5.62
2023-03-29T05:08:43.630Z,5.62
2023-03-29T05:09:43.625Z,5.62
2023-03-29T05:10:43.654Z,11.25
2023-03-29T05:11:43.646Z,11.25
2023-03-29T05:12:43.599Z,11.25
2023-03-29T05:13:43.595Z,11.25
2023-03-29T05:14:43.604Z,11.25
2023-03-29T05:15:43.566Z,16.88
2023-03-29T05:16:43.575Z,16.88
2023-03-29T05:17:43.566Z,16.88
2023-03-29T05:18:43.512Z,22.50
2023-03-29T05:19:43.539Z,22.50
2023-03-29T05:20:43.499Z,22.50
2023-03-29T05:21:45.397Z,28.12
2023-03-29T05:22:44.516Z,28.12
2023-03-29T05:23:43.481Z,33.75
2023-03-29T05:24:43.461Z,33.75
2023-03-29T05:25:43.459Z,33.75
2023-03-29T05:26:43.446Z,39.38
2023-03-29T05:27:43.427Z,39.38
2023-03-29T05:28:43.417Z,45.00
2023-03-29T05:29:43.410Z,45.00
2023-03-29T05:30:43.435Z,50.62
2023-03-29T05:31:43.403Z,50.62
2023-03-29T05:32:43.406Z,50.62
2023-03-29T05:33:43.393Z,56.25
2023-03-29T05:34:43.429Z,56.25
2023-03-29T05:35:43.392Z,56.25
2023-03-29T05:36:43.357Z,56.25
2023-03-29T05:37:43.336Z,56.25
2023-03-29T05:38:43.307Z,56.25
2023-03-29T05:39:43.317Z,61.88
2023-03-29T05:40:43.314Z,61.88
2023-03-29T05:41:43.287Z,61.88
2023-03-29T05:42:43.277Z,61.88
2023-03-29T05:43:43.249Z,61.88
2023-03-29T05:44:43.253Z,67.50
2023-03-29T05:45:43.326Z,67.50
2023-03-29T05:46:43.226Z,67.50
2023-03-29T05:47:43.293Z,73.12
2023-03-29T05:48:43.223Z,73.12
2023-03-29T05:49:43.205Z,73.12
2023-03-29T05:50:45.126Z,73.12
2023-03-29T05:51:44.200Z,67.50
2023-03-29T05:52:43.202Z,67.50
2023-03-29T05:53:43.183Z,67.50
2023-03-29T05:54:43.164Z,67.50
2023-03-29T05:55:43.141Z,67.50
2023-03-29T05:56:43.158Z,67.50
2023-03-29T05:57:43.115Z,67.50
2023-03-29T05:58:43.099Z,67.50
2023-03-29T05:59:43.090Z,67.50
2023-03-29T06:00:43.082Z,73.12
2023-03-29T06:01:43.082Z,73.12
2023-03-29T06:02:43.143Z,78.75
2023-03-29T06:03:43.298Z,78.75
2023-03-29T06:04:43.154Z,78.75
2023-03-29T06:05:43.028Z,78.75
2023-03-29T06:06:43.016Z,78.75
2023-03-29T06:07:43.015Z,78.75
2023-03-29T06:08:43.005Z,78.75
2023-03-29T06:09:43.019Z,84.38
2023-03-29T06:10:42.999Z,84.38
2023-03-29T06:11:42.989Z,84.38
2023-03-29T06:12:42.964Z,78.75
2023-03-29T06:13:42.961Z,73.12
2023-03-29T06:14:42.960Z,73.12
2023-03-29T06:15:42.930Z,73.12
2023-03-29T06:16:43.048Z,73.12
2023-03-29T06:17:42.954Z,84.38
2023-03-29T06:18:42.889Z,90.00
2023-03-29T06:19:42.880Z,90.00
2023-03-29T06:20:42.880Z,90.00
2023-03-29T06:21:42.851Z,101.25
2023-03-29T06:22:42.862Z,101.25
2023-03-29T06:23:42.876Z,101.25
2023-03-29T06:24:42.848Z,95.62
2023-03-29T06:25:42.824Z,95.62
2023-03-29T06:26:42.813Z,101.25
2023-03-29T06:27:42.808Z,112.50
2023-03-29T06:28:42.787Z,118.12
2023-03-29T06:29:42.772Z,118.12
2023-03-29T06:30:42.757Z,123.75
2023-03-29T06:31:42.792Z,123.75
2023-03-29T06:32:42.796Z,129.38
2023-03-29T06:33:42.763Z,135.00
2023-03-29T06:34:42.759Z,135.00
2023-03-29T06:35:42.724Z,135.00
2023-03-29T06:36:42.715Z,129.38
2023-03-29T06:37:42.693Z,129.38
2023-03-29T06:38:42.709Z,135.00
2023-03-29T06:39:42.687Z,135.00
2023-03-29T06:40:42.676Z,135.00
2023-03-29T06:41:42.653Z,135.00
2023-03-29T06:42:42.647Z,135.00
2023-03-29T06:43:42.646Z,140.62
2023-03-29T06:44:42.622Z,146.25
2023-03-29T06:45:42.640Z,151.88
2023-03-29T06:46:42.630Z,157.50
2023-03-29T06:47:42.647Z,163.12
2023-03-29T06:48:42.605Z,168.75
2023-03-29T06:49:42.577Z,168.75
2023-03-29T06:50:42.600Z,180.00
2023-03-29T06:51:42.563Z,185.62
2023-03-29T06:52:42.528Z,191.25
2023-03-29T06:53:42.526Z,191.25
2023-03-29T06:54:42.537Z,185.62
2023-03-29T06:55:42.507Z,180.00
2023-03-29T06:56:42.552Z,180.00
2023-03-29T06:57:42.501Z,174.38
2023-03-29T06:58:42.500Z,174.38
2023-03-29T06:59:42.484Z,174.38
2023-03-29T07:00:42.472Z,174.38
2023-03-29T07:01:42.463Z,185.62
2023-03-29T07:02:42.503Z,191.25
2023-03-29T07:03:44.180Z,196.88
2023-03-29T07:04:42.493Z,208.12
2023-03-29T07:05:42.410Z,213.75
2023-03-29T07:06:42.396Z,219.38
2023-03-29T07:07:42.393Z,230.62
2023-03-29T07:08:42.374Z,241.88
2023-03-29T07:09:42.387Z,247.50
2023-03-29T07:10:42.352Z,247.50
2023-03-29T07:11:42.370Z,236.25
2023-03-29T07:12:42.344Z,230.62
2023-03-29T07:13:42.416Z,225.00
2023-03-29T07:14:44.089Z,225.00
2023-03-29T07:15:42.298Z,219.38
2023-03-29T07:16:42.365Z,202.50
2023-03-29T07:17:42.314Z,185.62
2023-03-29T07:18:42.265Z,174.38
2023-03-29T07:19:42.264Z,168.75
2023-03-29T07:20:42.249Z,174.38
2023-03-29T07:21:42.232Z,174.38
2023-03-29T07:22:42.224Z,180.00
2023-03-29T07:23:42.225Z,185.62
2023-03-29T07:24:42.185Z,191.25
2023-03-29T07:25:42.182Z,191.25
2023-03-29T07:26:52.343Z,191.25
2023-03-29T07:27:44.163Z,196.88
2023-03-29T07:28:42.170Z,208.12
2023-03-29T07:29:42.145Z,219.38
2023-03-29T07:30:42.152Z,230.62
2023-03-29T07:31:42.124Z,236.25
2023-03-29T07:32:42.264Z,247.50
2023-03-29T07:33:42.233Z,247.50
2023-03-29T07:34:42.087Z,253.12
2023-03-29T07:35:42.122Z,253.12
2023-03-29T07:36:42.062Z,264.38
2023-03-29T07:37:42.048Z,270.00
2023-03-29T07:38:42.069Z,275.62
2023-03-29T07:39:42.048Z,270.00
2023-03-29T07:40:42.020Z,264.38
2023-03-29T07:41:42.117Z,258.75
2023-03-29T07:42:42.033Z,258.75
2023-03-29T07:43:42.019Z,264.38
2023-03-29T07:44:41.998Z,270.00
2023-03-29T07:45:42.008Z,270.00
2023-03-29T07:46:41.972Z,270.00
2023-03-29T07:47:41.964Z,270.00
2023-03-29T07:48:41.932Z,270.00
2023-03-29T07:49:41.917Z,270.00
2023-03-29T07:50:41.918Z,258.75
2023-03-29T07:51:41.905Z,258.75
2023-03-29T07:52:41.912Z,258.75
2023-03-29T07:53:41.905Z,270.00
2023-03-29T07:54:41.909Z,275.62
2023-03-29T07:55:44.660Z,286.88
2023-03-29T07:56:41.901Z,286.88
2023-03-29T07:57:41.838Z,292.50
2023-03-29T07:58:41.842Z,303.75
2023-03-29T07:59:41.822Z,298.12
2023-03-29T08:00:41.811Z,292.50
2023-03-29T08:01:41.802Z,292.50
2023-03-29T08:02:41.829Z,292.50
2023-03-29T08:03:41.779Z,286.88
2023-03-29T08:04:41.822Z,270.00
2023-03-29T08:05:42.267Z,253.12
2023-03-29T08:06:41.741Z,247.50
2023-03-29T08:07:41.722Z,253.12
2023-03-29T08:08:41.723Z,253.12
2023-03-29T08:09:41.704Z,241.88
2023-03-29T08:10:41.716Z,236.25
2023-03-29T08:11:41.709Z,230.62
2023-03-29T08:12:41.666Z,225.00
2023-03-29T08:13:41.670Z,219.38
2023-03-29T08:14:41.656Z,219.38
2023-03-29T08:15:41.655Z,219.38
2023-03-29T08:16:41.686Z,208.12
2023-03-29T08:17:41.652Z,196.88
2023-03-29T08:18:41.613Z,180.00
2023-03-29T08:19:41.614Z,180.00
2023-03-29T08:20:42.625Z,174.38
2023-03-29T08:21:41.568Z,174.38
2023-03-29T08:22:41.567Z,180.00
2023-03-29T08:23:41.549Z,185.62
2023-03-29T08:24:41.560Z,196.88
2023-03-29T08:25:41.517Z,219.38
2023-03-29T08:26:41.533Z,230.62
2023-03-29T08:27:41.552Z,241.88
2023-03-29T08:28:41.501Z,253.12
2023-03-29T08:29:41.483Z,264.38
2023-03-29T08:30:41.531Z,275.62
2023-03-29T08:31:41.508Z,292.50
2023-03-29T08:32:41.511Z,303.75
2023-03-29T08:33:41.465Z,331.88
2023-03-29T08:34:41.413Z,354.38
2023-03-29T08:35:41.464Z,348.75
2023-03-29T08:36:41.414Z,343.12
2023-03-29T08:37:41.434Z,348.75
2023-03-29T08:38:41.385Z,360.00
2023-03-29T08:39:41.398Z,376.88
2023-03-29T08:40:41.378Z,382.50
2023-03-29T08:41:41.333Z,388.12
2023-03-29T08:42:41.344Z,382.50
2023-03-29T08:43:41.365Z,393.75
2023-03-29T08:44:41.333Z,410.62
2023-03-29T08:45:41.332Z,427.50
2023-03-29T08:46:41.382Z,427.50
2023-03-29T08:47:41.318Z,427.50
2023-03-29T08:48:41.274Z,427.50
2023-03-29T08:49:41.273Z,433.12
2023-03-29T08:50:41.260Z,438.75
2023-03-29T08:51:41.236Z,450.00
2023-03-29T08:52:41.246Z,455.62
2023-03-29T08:53:41.215Z,450.00
2023-03-29T08:54:41.217Z,444.38
2023-03-29T08:55:41.193Z,438.75
2023-03-29T08:56:41.187Z,427.50
2023-03-29T08:57:41.228Z,421.88
2023-03-29T08:58:41.151Z,421.88
2023-03-29T08:59:41.170Z,438.75
2023-03-29T09:00:41.129Z,450.00
2023-03-29T09:01:41.127Z,455.62
2023-03-29T09:02:41.198Z,461.25
2023-03-29T09:03:41.235Z,472.50
2023-03-29T09:04:41.080Z,483.75
2023-03-29T09:05:41.128Z,483.75
2023-03-29T09:06:41.075Z,472.50
2023-03-29T09:07:41.070Z,461.25
2023-03-29T09:08:41.075Z,455.62
2023-03-29T09:09:41.032Z,444.38
2023-03-29T09:10:41.079Z,433.12
2023-03-29T09:11:41.042Z,433.12
2023-03-29T09:12:41.000Z,444.38
2023-03-29T09:13:41.000Z,472.50
2023-03-29T09:14:40.980Z,489.38
2023-03-29T09:15:41.022Z,483.75
2023-03-29T09:16:40.977Z,478.12
2023-03-29T09:17:40.966Z,478.12
2023-03-29T09:19:13.150Z,483.75
2023-03-29T09:19:40.892Z,483.75
2023-03-29T09:20:40.918Z,483.75
2023-03-29T09:21:40.925Z,483.75
2023-03-29T09:22:40.889Z,495.00
2023-03-29T09:23:40.859Z,489.38
2023-03-29T09:24:40.895Z,489.38
2023-03-29T09:25:50.716Z,483.75
2023-03-29T09:26:42.826Z,478.12
2023-03-29T09:27:40.857Z,466.88
2023-03-29T09:28:40.847Z,450.00
2023-03-29T09:29:40.794Z,450.00
2023-03-29T09:30:40.783Z,455.62
2023-03-29T09:31:40.822Z,438.75
2023-03-29T09:32:40.784Z,433.12
2023-03-29T09:33:40.748Z,438.75
2023-03-29T09:34:40.756Z,438.75
2023-03-29T09:35:40.769Z,444.38
2023-03-29T09:36:40.716Z,450.00
2023-03-29T09:37:40.739Z,455.62
2023-03-29T09:38:40.702Z,466.88
2023-03-29T09:39:40.665Z,466.88
2023-03-29T09:40:40.684Z,461.25
2023-03-29T09:41:40.683Z,455.62
2023-03-29T09:42:40.633Z,444.38
2023-03-29T09:43:40.659Z,433.12
2023-03-29T09:44:40.646Z,416.25
2023-03-29T09:45:40.649Z,410.62
2023-03-29T09:46:40.592Z,393.75
2023-03-29T09:47:40.667Z,388.12
2023-03-29T09:48:41.583Z,388.12
2023-03-29T09:49:40.593Z,388.12
2023-03-29T09:50:40.563Z,393.75
2023-03-29T09:51:40.567Z,416.25
2023-03-29T09:52:40.543Z,433.12
2023-03-29T09:53:40.592Z,438.75
2023-03-29T09:54:40.505Z,461.25
2023-03-29T09:55:40.514Z,472.50
2023-03-29T09:56:40.594Z,478.12
2023-03-29T09:57:40.456Z,489.38
2023-03-29T09:58:40.496Z,495.00
2023-03-29T09:59:40.445Z,495.00
2023-03-29T10:00:40.431Z,500.62
2023-03-29T10:01:40.491Z,506.25
2023-03-29T10:02:40.485Z,506.25
2023-03-29T10:03:40.396Z,506.25
2023-03-29T10:04:40.456Z,506.25
2023-03-29T10:05:40.417Z,506.25
2023-03-29T10:06:40.364Z,500.62
2023-03-29T10:07:40.395Z,506.25
2023-03-29T10:08:40.365Z,506.25
2023-03-29T10:09:40.340Z,506.25
2023-03-29T10:10:40.340Z,506.25
2023-03-29T10:11:40.349Z,506.25
2023-03-29T10:12:40.324Z,511.88
2023-03-29T10:13:40.279Z,511.88
2023-03-29T10:14:40.313Z,511.88
2023-03-29T10:15:40.301Z,511.88
2023-03-29T10:16:40.429Z,511.88
2023-03-29T10:17:40.337Z,506.25
2023-03-29T10:18:40.261Z,500.62
2023-03-29T10:19:40.218Z,495.00
2023-03-29T10:20:40.231Z,489.38
2023-03-29T10:21:40.232Z,483.75
2023-03-29T10:22:40.197Z,489.38
2023-03-29T10:23:40.241Z,500.62
2023-03-29T10:24:40.185Z,506.25
2023-03-29T10:25:42.297Z,517.50
2023-03-29T10:26:41.156Z,523.12
2023-03-29T10:27:40.136Z,528.75
2023-03-29T10:28:40.122Z,534.38
2023-03-29T10:29:40.136Z,540.00
2023-03-29T10:30:40.164Z,551.25
2023-03-29T10:31:40.170Z,551.25
2023-03-29T10:32:40.154Z,551.25
2023-03-29T10:33:40.066Z,556.88
2023-03-29T10:34:40.057Z,556.88
2023-03-29T10:35:40.097Z,556.88
2023-03-29T10:36:40.061Z,556.88
2023-03-29T10:37:40.026Z,562.50
2023-03-29T10:38:40.036Z,562.50
2023-03-29T10:39:40.004Z,556.88
2023-03-29T10:40:39.998Z,556.88
2023-03-29T10:41:40.020Z,556.88
2023-03-29T10:42:40.042Z,556.88
2023-03-29T10:43:39.951Z,551.25
2023-03-29T10:44:39.963Z,551.25
2023-03-29T10:45:39.953Z,568.12
2023-03-29T10:46:40.067Z,579.38
2023-03-29T10:47:40.543Z,590.62
2023-03-29T10:48:39.930Z,590.62
2023-03-29T10:49:39.883Z,590.62
2023-03-29T10:50:39.883Z,596.25
2023-03-29T10:51:39.890Z,579.38
2023-03-29T10:52:39.870Z,562.50
2023-03-29T10:53:39.867Z,568.12
2023-03-29T10:54:39.892Z,579.38
2023-03-29T10:55:39.843Z,590.62
2023-03-29T10:56:39.883Z,596.25
2023-03-29T10:57:39.807Z,601.88
2023-03-29T10:58:39.799Z,618.75
2023-03-29T10:59:39.804Z,607.50
2023-03-29T11:00:39.771Z,607.50
2023-03-29T11:01:39.818Z,585.00
2023-03-29T11:02:39.904Z,568.12
2023-03-29T11:03:39.780Z,573.75
2023-03-29T11:04:39.731Z,596.25
2023-03-29T11:05:39.744Z,579.38
2023-03-29T11:06:39.711Z,568.12
2023-03-29T11:07:39.678Z,568.12
2023-03-29T11:08:39.687Z,562.50
2023-03-29T11:09:39.744Z,568.12
2023-03-29T11:10:39.666Z,579.38
2023-03-29T11:11:39.685Z,562.50
2023-03-29T11:12:39.669Z,579.38
2023-03-29T11:13:39.627Z,562.50
2023-03-29T11:14:39.620Z,562.50
2023-03-29T11:15:39.663Z,556.88
2023-03-29T11:16:39.605Z,545.62
2023-03-29T11:17:40.603Z,517.50
2023-03-29T11:18:39.606Z,511.88
2023-03-29T11:19:39.559Z,495.00
2023-03-29T11:20:39.567Z,472.50
2023-03-29T11:21:39.577Z,450.00
2023-03-29T11:22:39.533Z,433.12
2023-03-29T11:23:39.533Z,410.62
2023-03-29T11:24:39.513Z,365.62
2023-03-29T11:25:39.514Z,343.12
2023-03-29T11:26:39.493Z,326.25
2023-03-29T11:27:39.505Z,309.38
2023-03-29T11:28:39.496Z,281.25
2023-03-29T11:29:39.469Z,275.62
2023-03-29T11:30:40.443Z,298.12
2023-03-29T11:31:39.501Z,348.75
2023-03-29T11:32:39.463Z,410.62
2023-03-29T11:33:39.414Z,472.50
2023-03-29T11:34:39.441Z,534.38
2023-03-29T11:35:39.440Z,596.25
2023-03-29T11:36:39.385Z,601.88
2023-03-29T11:37:39.398Z,573.75
2023-03-29T11:38:39.367Z,562.50
2023-03-29T11:39:39.339Z,585.00
2023-03-29T11:40:39.383Z,596.25
2023-03-29T11:41:39.377Z,601.88
2023-03-29T11:42:39.318Z,601.88
2023-03-29T11:43:39.336Z,607.50
2023-03-29T11:44:39.300Z,596.25
2023-03-29T11:45:39.281Z,573.75
2023-03-29T11:46:39.358Z,511.88
2023-03-29T11:47:39.316Z,523.12
2023-03-29T11:48:39.280Z,551.25
2023-03-29T11:49:39.232Z,585.00
2023-03-29T11:50:39.247Z,601.88
2023-03-29T11:51:39.238Z,596.25
2023-03-29T11:52:39.211Z,596.25
2023-03-29T11:53:39.214Z,596.25
2023-03-29T11:54:39.211Z,607.50
2023-03-29T11:55:39.170Z,618.75
2023-03-29T11:56:39.238Z,630.00
2023-03-29T11:57:39.172Z,646.88
2023-03-29T11:58:39.348Z,658.12
2023-03-29T11:59:40.149Z,658.12
2023-03-29T12:00:39.177Z,652.50
2023-03-29T12:01:39.173Z,635.62
2023-03-29T12:02:39.227Z,624.38
2023-03-29T12:03:39.192Z,624.38
2023-03-29T12:04:39.075Z,635.62
2023-03-29T12:05:39.088Z,663.75
2023-03-29T12:06:39.039Z,680.62
2023-03-29T12:07:39.088Z,680.62
2023-03-29T12:08:39.040Z,680.62
2023-03-29T12:09:39.021Z,652.50
2023-03-29T12:10:39.017Z,630.00
2023-03-29T12:11:39.039Z,624.38
2023-03-29T12:12:39.009Z,613.12
2023-03-29T12:13:39.005Z,607.50
2023-03-29T12:14:38.985Z,596.25
2023-03-29T12:15:38.948Z,601.88
2023-03-29T12:16:38.983Z,601.88
2023-03-29T12:17:38.978Z,601.88
2023-03-29T12:18:38.933Z,613.12
2023-03-29T12:19:42.714Z,635.62
2023-03-29T12:20:39.901Z,618.75
2023-03-29T12:21:38.906Z,590.62
2023-03-29T12:22:38.912Z,556.88
2023-03-29T12:23:38.877Z,545.62
2023-03-29T12:24:38.867Z,579.38
2023-03-29T12:25:38.845Z,556.88
2023-03-29T12:26:38.835Z,568.12
2023-03-29T12:27:38.850Z,596.25
2023-03-29T12:28:38.815Z,624.38
2023-03-29T12:29:38.782Z,658.12
2023-03-29T12:30:38.782Z,731.25
2023-03-29T12:31:38.822Z,691.88
2023-03-29T12:32:38.829Z,714.38
2023-03-29T12:33:38.744Z,804.38
2023-03-29T12:34:38.764Z,770.62
2023-03-29T12:35:38.760Z,776.25
2023-03-29T12:36:38.741Z,770.62
2023-03-29T12:37:38.737Z,731.25
2023-03-29T12:38:38.724Z,770.62
2023-03-29T12:39:38.709Z,793.12
2023-03-29T12:40:38.730Z,821.25
2023-03-29T12:41:38.703Z,765.00
2023-03-29T12:42:38.684Z,641.25
2023-03-29T12:43:38.652Z,545.62
2023-03-29T12:44:38.652Z,511.88
2023-03-29T12:45:38.690Z,528.75
2023-03-29T12:46:38.646Z,585.00
2023-03-29T12:47:38.695Z,675.00
2023-03-29T12:48:38.654Z,607.50
2023-03-29T12:49:38.607Z,624.38
2023-03-29T12:50:38.618Z,635.62